Time;durP1;ratioP1;P1;durP2;ratioP2;P2;SDS_P1;SDS_P2;PMS_P1;PMS_P2;Temp;Humidity;BMP_temperature;BMP_pressure;BME280_temperature;BME280_humidity;BME280_pressure;Samples;Min_cycle;Max_cycle;Signal;HPM_P1;HPM_P2
2024/01/24 00:06:48;;;;;;;15.00;4.13;;;;;;;5.67;59.11;100781.69;6106909;22;103536;-83
2024/01/24 00:09:13;;;;;;;15.97;4.47;;;;;;;5.92;59.05;100812.78;6246801;22;98431;-83
2024/01/24 00:11:39;;;;;;;15.93;4.77;;;;;;;5.93;59.26;100795.41;6221174;22;98408;-83
2024/01/24 00:14:04;;;;;;;16.30;4.40;;;;;;;6.00;58.94;100799.75;6196088;22;97119;-83
2024/01/24 00:16:30;;;;;;;15.23;4.93;;;;;;;5.89;59.20;100776.31;6195938;22;96816;-83
2024/01/24 00:18:55;;;;;;;18.23;4.38;;;;;;;5.94;59.38;100791.97;6195012;22;100287;-83
2024/01/24 00:21:21;;;;;;;10.30;3.70;;;;;;;6.04;59.01;100794.47;6195593;22;101267;-84
2024/01/24 00:23:47;;;;;;;18.10;4.77;;;;;;;5.98;58.79;100778.03;6197050;22;97267;-83
2024/01/24 00:26:13;;;;;;;19.73;4.95;;;;;;;5.98;58.89;100762.38;6222132;22;96753;-83
2024/01/24 00:28:39;;;;;;;15.88;4.20;;;;;;;5.78;58.90;100716.47;6196497;22;101900;-83
2024/01/24 00:31:04;;;;;;;13.10;4.53;;;;;;;5.97;58.97;100758.94;6221604;22;101288;-83
2024/01/24 00:33:29;;;;;;;12.43;3.53;;;;;;;5.91;59.10;100756.34;6222011;22;96593;-83
2024/01/24 00:35:55;;;;;;;14.27;4.40;;;;;;;5.92;59.27;100750.25;6197132;22;97208;-82
2024/01/24 00:38:21;;;;;;;14.33;3.60;;;;;;;5.98;59.33;100742.41;6221787;22;97066;-82
2024/01/24 00:40:46;;;;;;;15.17;4.30;;;;;;;6.06;58.75;100752.78;6196389;22;101216;-83
2024/01/24 00:43:12;;;;;;;16.55;4.55;;;;;;;6.06;59.24;100743.22;6221492;22;97150;-83
2024/01/24 00:45:37;;;;;;;10.45;4.15;;;;;;;6.00;59.54;100724.16;6195985;22;96839;-83
2024/01/24 00:48:03;;;;;;;15.83;4.73;;;;;;;6.02;59.53;100694.59;6196241;22;101618;-83
2024/01/24 00:50:28;;;;;;;15.15;3.83;;;;;;;6.15;59.11;100704.91;6221801;22;98335;-83
2024/01/24 00:52:55;;;;;;;15.38;4.22;;;;;;;5.95;59.47;100692.06;6196993;22;96622;-83
2024/01/24 00:55:21;;;;;;;17.50;4.70;;;;;;;5.87;59.52;100669.50;6196792;22;97016;-82
2024/01/24 00:57:47;;;;;;;12.43;3.20;;;;;;;5.85;59.84;100660.84;6222063;22;97974;-85
2024/01/24 01:00:13;;;;;;;10.48;3.15;;;;;;;5.93;59.72;100652.97;6222196;22;97334;-83
2024/01/24 01:02:38;;;;;;;14.63;4.18;;;;;;;5.87;60.04;100643.44;6247462;22;96658;-84
2024/01/24 01:05:04;;;;;;;14.93;3.93;;;;;;;5.92;60.37;100650.38;6247771;22;96817;-83
2024/01/24 01:07:30;;;;;;;18.00;4.33;;;;;;;5.80;60.33;100630.50;6220516;22;100553;-82
2024/01/24 01:09:55;;;;;;;19.70;4.07;;;;;;;5.81;60.63;100642.63;6196028;22;101332;-83
2024/01/24 01:12:21;;;;;;;9.10;3.33;;;;;;;5.66;60.60;100618.47;6196477;22;97118;-83
2024/01/24 01:14:47;;;;;;;17.03;5.33;;;;;;;5.73;60.74;100632.31;6221993;22;96892;-83
2024/01/24 01:17:12;;;;;;;14.90;3.83;;;;;;;5.72;60.91;100632.31;6221018;22;101122;-84
2024/01/24 01:19:38;;;;;;;14.10;3.97;;;;;;;5.66;60.70;100628.88;6220977;22;100914;-84
2024/01/24 01:22:03;;;;;;;14.27;4.47;;;;;;;5.55;60.77;100609.88;6196415;22;96727;-85
2024/01/24 01:24:29;;;;;;;17.30;4.97;;;;;;;5.34;61.33;100578.81;6196892;22;96811;-83
2024/01/24 01:26:54;;;;;;;13.90;4.07;;;;;;;5.23;61.17;100555.47;6221541;22;100832;-83
2024/01/24 01:29:20;;;;;;;14.50;3.67;;;;;;;5.35;61.49;100577.94;6195802;22;101395;-83
2024/01/24 01:31:45;;;;;;;16.63;4.20;;;;;;;5.39;61.38;100557.09;6246471;22;96598;-83
2024/01/24 01:34:11;;;;;;;20.53;4.70;;;;;;;5.08;61.74;100512.22;6221359;22;96854;-83
2024/01/24 01:36:36;;;;;;;14.53;3.83;;;;;;;5.48;61.70;100552.69;6220302;22;101180;-83
2024/01/24 01:39:04;;;;;;;20.93;4.00;;;;;;;5.36;62.26;100535.44;6274492;22;98263;-83
2024/01/24 01:41:29;;;;;;;17.27;3.67;;;;;;;5.28;62.14;100500.78;6221437;22;96566;-83
2024/01/24 01:43:55;;;;;;;16.17;3.57;;;;;;;5.20;62.68;100491.28;6222117;22;96784;-83
2024/01/24 01:46:21;;;;;;;21.17;4.93;;;;;;;5.36;62.43;100509.41;6221434;22;97996;-83
2024/01/24 01:48:49;;;;;;;11.83;3.30;;;;;;;5.29;62.58;100486.88;6221909;22;101292;-83
2024/01/24 01:51:16;;;;;;;12.43;3.60;;;;;;;5.36;62.60;100506.78;6223062;22;96607;-83
2024/01/24 01:53:43;;;;;;;12.73;3.60;;;;;;;5.29;62.47;100485.16;6197685;22;96822;-83
2024/01/24 01:56:10;;;;;;;16.37;3.27;;;;;;;5.11;62.50;100428.06;6248020;22;97960;-83
2024/01/24 01:58:37;;;;;;;15.60;4.27;;;;;;;5.23;62.38;100451.38;6197688;22;101659;-83
2024/01/24 02:01:04;;;;;;;15.60;3.63;;;;;;;5.28;62.71;100462.59;6197331;22;96707;-83
2024/01/24 02:03:34;;;;;;;17.50;3.80;;;;;;;5.32;62.40;100460.81;6225203;22;96987;-83
2024/01/24 02:06:00;;;;;;;14.83;4.33;;;;;;;5.30;62.70;100450.44;6196928;22;101084;-83
2024/01/24 02:08:26;;;;;;;9.57;3.13;;;;;;;5.12;62.66;100404.66;6222442;22;97386;-83
2024/01/24 02:10:51;;;;;;;14.02;3.85;;;;;;;5.34;62.42;100428.69;6223349;22;96721;-83
2024/01/24 02:13:17;;;;;;;15.87;4.63;;;;;;;5.32;62.81;100421.78;6223664;22;96752;-83
2024/01/24 02:15:42;;;;;;;18.93;4.50;;;;;;;5.19;62.65;100395.03;6222398;22;101025;-82
2024/01/24 02:18:08;;;;;;;19.03;4.40;;;;;;;5.14;62.78;100389.00;6222636;22;97817;-83
2024/01/24 02:20:34;;;;;;;12.10;4.10;;;;;;;5.22;63.00;100393.25;6222261;22;96651;-83
2024/01/24 02:23:00;;;;;;;14.93;4.77;;;;;;;5.21;63.33;100394.16;6222724;22;96869;-83
2024/01/24 02:25:26;;;;;;;17.53;5.10;;;;;;;5.16;63.48;100369.03;6248642;22;97688;-83
2024/01/24 02:27:51;;;;;;;12.47;3.77;;;;;;;5.27;63.32;100364.59;6196948;22;101785;-83
2024/01/24 02:30:17;;;;;;;19.63;4.90;;;;;;;5.29;63.43;100359.34;6222860;22;96591;-83
2024/01/24 02:32:42;;;;;;;13.10;4.23;;;;;;;5.21;63.63;100339.50;6222430;22;97506;-84
2024/01/24 02:35:08;;;;;;;12.97;4.33;;;;;;;5.32;64.23;100346.28;6196986;22;101378;-83
2024/01/24 02:37:33;;;;;;;12.10;3.77;;;;;;;5.38;63.96;100335.81;6197124;22;100563;-83
2024/01/24 02:39:59;;;;;;;15.13;3.83;;;;;;;5.35;63.93;100326.31;6197537;22;96632;-83
2024/01/24 02:42:24;;;;;;;16.63;4.30;;;;;;;5.28;64.01;100297.75;6197669;22;96799;-83
2024/01/24 02:44:50;;;;;;;15.33;4.20;;;;;;;5.34;64.11;100318.50;6196434;22;101143;-83
2024/01/24 02:47:19;;;;;;;13.77;4.40;;;;;;;5.32;64.21;100289.88;6248366;22;100872;-83
2024/01/24 02:49:44;;;;;;;11.93;3.67;;;;;;;5.09;64.29;100256.38;6198096;22;96700;-83
2024/01/24 02:52:10;;;;;;;19.90;4.77;;;;;;;5.15;64.70;100245.03;6222956;22;96700;-83
2024/01/24 02:54:37;;;;;;;13.13;3.43;;;;;;;5.39;64.47;100270.72;6222279;22;100858;-83
2024/01/24 02:57:04;;;;;;;15.30;3.80;;;;;;;5.41;64.38;100268.97;6198165;22;96815;-82
2024/01/24 02:59:31;;;;;;;17.30;4.03;;;;;;;5.49;64.95;100274.03;6222346;22;97030;-83
2024/01/24 03:01:56;;;;;;;11.90;2.97;;;;;;;5.46;64.64;100263.66;6196720;22;96757;-83
2024/01/24 03:04:22;;;;;;;12.87;3.27;;;;;;;5.38;64.33;100222.13;6221959;22;100920;-83
2024/01/24 03:06:47;;;;;;;16.07;3.63;;;;;;;5.49;64.38;100234.13;6196510;22;100992;-83
2024/01/24 03:09:13;;;;;;;16.07;3.10;;;;;;;5.48;64.23;100224.59;6196955;22;96996;-83
2024/01/24 03:11:38;;;;;;;11.00;3.13;;;;;;;5.60;64.82;100237.44;6197147;22;96830;-83
2024/01/24 03:14:04;;;;;;;13.57;3.60;;;;;;;5.66;64.58;100222.56;6222387;22;97631;-83
2024/01/24 03:16:29;;;;;;;14.20;3.10;;;;;;;5.66;64.30;100196.53;6196766;22;101289;-83
2024/01/24 03:18:55;;;;;;;10.77;2.73;;;;;;;5.65;64.51;100184.41;6197420;22;96694;-83
2024/01/24 03:21:20;;;;;;;16.43;3.60;;;;;;;5.83;64.38;100193.66;6248606;22;96842;-83
2024/01/24 03:23:46;;;;;;;14.00;3.87;;;;;;;5.79;64.44;100183.28;6222380;22;98149;-84
2024/01/24 03:26:14;;;;;;;13.87;3.20;;;;;;;5.94;64.10;100195.28;6222481;22;100612;-83
2024/01/24 03:28:39;;;;;;;9.70;2.97;;;;;;;5.94;64.08;100179.63;6222399;22;96748;-83
2024/01/24 03:31:05;;;;;;;8.33;2.53;;;;;;;6.07;64.48;100194.16;6222398;22;96724;-83
2024/01/24 03:33:31;;;;;;;7.20;2.40;;;;;;;6.10;64.71;100189.72;6195842;22;101305;-83
2024/01/24 03:35:56;;;;;;;7.43;2.55;;;;;;;6.02;64.66;100168.19;6196525;22;101483;-83
2024/01/24 03:38:22;;;;;;;7.83;2.40;;;;;;;6.19;64.70;100191.31;6222696;22;96599;-83
2024/01/24 03:40:47;;;;;;;8.97;2.27;;;;;;;6.03;65.13;100161.22;6248572;22;97089;-82
2024/01/24 03:43:13;;;;;;;8.40;2.17;;;;;;;6.01;64.96;100163.00;6247789;22;97772;-83
2024/01/24 03:45:39;;;;;;;8.20;2.57;;;;;;;6.05;64.87;100151.63;6221269;22;101236;-84
2024/01/24 03:48:05;;;;;;;9.33;2.73;;;;;;;6.20;64.82;100172.22;6222008;22;96730;-83
2024/01/24 03:50:31;;;;;;;10.67;2.57;;;;;;;6.26;64.96;100153.84;6248866;22;96716;-83
2024/01/24 03:52:56;;;;;;;10.23;2.92;;;;;;;6.16;65.34;100136.63;6196784;22;101339;-82
2024/01/24 03:55:22;;;;;;;7.03;2.17;;;;;;;6.23;65.22;100155.66;6221932;22;101659;-82
2024/01/24 03:57:47;;;;;;;9.10;2.47;;;;;;;6.22;65.30;100143.50;6222205;22;96569;-82
2024/01/24 04:00:14;;;;;;;12.05;3.22;;;;;;;6.08;65.66;100091.66;6248663;22;96674;-82
2024/01/24 04:02:40;;;;;;;6.50;1.93;;;;;;;6.24;66.01;100110.44;6196543;22;100835;-82
2024/01/24 04:05:06;;;;;;;5.40;2.00;;;;;;;6.26;66.14;100126.91;6247972;22;97766;-81
2024/01/24 04:07:32;;;;;;;6.27;2.00;;;;;;;6.32;66.42;100113.75;6248158;22;96664;-81
2024/01/24 04:09:58;;;;;;;7.37;1.60;;;;;;;6.37;66.27;100100.63;6222812;22;96697;-82
2024/01/24 04:12:24;;;;;;;3.90;1.23;;;;;;;6.49;65.84;100095.16;6221421;22;101875;-82
2024/01/24 04:14:49;;;;;;;9.30;1.77;;;;;;;6.61;65.33;100101.88;6222850;22;100493;-82
2024/01/24 04:17:15;;;;;;;4.63;1.80;;;;;;;6.60;65.24;100093.16;6222173;22;96774;-82
2024/01/24 04:19:40;;;;;;;4.88;2.25;;;;;;;6.68;65.31;100077.38;6248708;22;96807;-82
2024/01/24 04:22:07;;;;;;;3.38;1.70;;;;;;;6.70;65.10;100068.63;6195590;22;101252;-82
2024/01/24 04:24:33;;;;;;;5.65;1.52;;;;;;;6.65;65.44;100057.41;6222153;22;101169;-82
2024/01/24 04:26:58;;;;;;;4.20;1.63;;;;;;;6.74;65.50;100056.34;6222188;22;97234;-81
2024/01/24 04:29:24;;;;;;;7.00;2.53;;;;;;;6.68;65.86;100036.47;6222302;22;96882;-82
2024/01/24 04:31:49;;;;;;;4.13;1.50;;;;;;;6.78;66.20;100035.38;6247540;22;97606;-82
2024/01/24 04:34:17;;;;;;;5.80;1.77;;;;;;;6.77;66.40;100020.63;6221873;22;101198;-81
2024/01/24 04:36:43;;;;;;;4.00;1.47;;;;;;;6.82;66.59;100012.69;6196654;22;97200;-81
2024/01/24 04:39:10;;;;;;;5.50;1.70;;;;;;;6.65;66.63;99984.38;6221862;22;96835;-81
2024/01/24 04:41:36;;;;;;;3.60;1.40;;;;;;;6.63;67.05;99988.78;6221388;22;98161;-81
2024/01/24 04:44:02;;;;;;;5.78;1.45;;;;;;;6.77;67.15;100009.31;6196602;22;100837;-81
2024/01/24 04:46:28;;;;;;;3.47;1.63;;;;;;;6.73;67.36;99979.00;6221610;22;96739;-81
2024/01/24 04:48:53;;;;;;;3.20;1.17;;;;;;;6.86;67.11;99988.22;6196854;22;97109;-82
2024/01/24 04:51:19;;;;;;;4.00;1.00;;;;;;;6.87;67.13;99973.47;6196364;22;101283;-81
2024/01/24 04:53:44;;;;;;;3.10;1.30;;;;;;;6.87;67.84;99976.06;6196699;22;100994;-80
2024/01/24 04:56:10;;;;;;;6.53;1.58;;;;;;;6.83;68.21;99967.44;6275585;22;96482;-80
2024/01/24 04:58:35;;;;;;;3.42;1.30;;;;;;;6.88;68.11;99975.16;6247651;22;96678;-80
2024/01/24 05:01:01;;;;;;;4.22;1.15;;;;;;;6.70;68.81;99947.78;6247471;22;97521;-80
2024/01/24 05:03:27;;;;;;;4.30;1.00;;;;;;;6.71;69.38;99926.00;6221862;22;101550;-79
2024/01/24 05:05:52;;;;;;;4.10;1.20;;;;;;;6.94;69.46;99952.38;6222177;22;96681;-79
2024/01/24 05:08:18;;;;;;;7.13;1.55;;;;;;;6.85;70.34;99946.53;6222244;22;96821;-79
2024/01/24 05:10:44;;;;;;;3.42;1.38;;;;;;;6.90;70.25;99976.84;6221016;22;98024;-79
2024/01/24 05:13:10;;;;;;;4.60;1.58;;;;;;;6.98;70.44;99966.19;6195944;22;100364;-80
2024/01/24 05:15:36;;;;;;;2.42;1.20;;;;;;;6.78;70.80;99927.56;6222257;22;96625;-79
2024/01/24 05:18:02;;;;;;;8.80;1.23;;;;;;;6.79;71.27;99935.34;6248050;22;96813;-79
2024/01/24 05:20:27;;;;;;;3.58;1.35;;;;;;;6.57;71.76;99890.69;6195749;22;101024;-79
2024/01/24 05:22:53;;;;;;;3.67;1.20;;;;;;;6.66;71.89;99909.59;6196182;22;100877;-79
2024/01/24 05:25:18;;;;;;;5.50;1.40;;;;;;;6.75;72.45;99922.44;6222557;22;97106;-79
2024/01/24 05:27:44;;;;;;;8.70;1.50;;;;;;;6.80;72.86;99917.94;6223475;22;96856;-79
2024/01/24 05:30:10;;;;;;;6.05;1.67;;;;;;;6.76;73.15;99913.69;6276702;22;97445;-79
2024/01/24 05:32:36;;;;;;;5.28;1.40;;;;;;;6.73;73.00;99898.13;6222190;22;101032;-80
2024/01/24 05:35:01;;;;;;;3.75;1.25;;;;;;;6.68;73.05;99895.63;6222829;22;96718;-80
2024/01/24 05:37:27;;;;;;;4.97;1.55;;;;;;;6.73;73.39;99914.63;6249164;22;96682;-80
2024/01/24 05:39:52;;;;;;;3.17;1.25;;;;;;;6.87;73.10;99910.84;6222832;22;100995;-80
2024/01/24 05:42:18;;;;;;;4.60;1.35;;;;;;;6.70;73.28;99877.34;6196962;22;100755;-81
2024/01/24 05:44:44;;;;;;;9.65;1.40;;;;;;;6.73;74.14;99901.59;6248831;22;97298;-82
2024/01/24 05:47:10;;;;;;;6.13;1.75;;;;;;;6.69;74.55;99894.75;6197730;22;96805;-79
2024/01/24 05:49:36;;;;;;;7.45;1.58;;;;;;;6.44;74.82;99828.44;6197361;22;99298;-79
2024/01/24 05:52:05;;;;;;;3.40;1.30;;;;;;;6.60;75.43;99862.81;6197794;22;101229;-80
2024/01/24 05:54:31;;;;;;;6.18;1.35;;;;;;;6.52;75.25;99843.00;6249151;22;96577;-79
2024/01/24 05:56:57;;;;;;;2.10;1.15;;;;;;;6.56;75.34;99833.34;6248897;22;96777;-80
2024/01/24 05:59:23;;;;;;;3.45;1.38;;;;;;;6.50;75.46;99810.88;6248118;22;97436;-80
2024/01/24 06:01:48;;;;;;;4.68;1.50;;;;;;;6.57;75.62;99827.22;6221347;22;101515;-81
2024/01/24 06:04:14;;;;;;;3.95;1.40;;;;;;;6.51;75.73;99828.22;6197492;22;97269;-82
2024/01/24 06:06:40;;;;;;;5.45;1.30;;;;;;;6.54;75.35;99822.97;6197165;22;96854;-81
2024/01/24 06:09:06;;;;;;;5.28;1.63;;;;;;;6.39;75.54;99792.03;6248330;22;101438;-81
2024/01/24 06:11:31;;;;;;;2.95;1.45;;;;;;;6.62;75.20;99837.53;6222268;22;101074;-81
2024/01/24 06:13:57;;;;;;;4.45;1.50;;;;;;;6.60;75.03;99821.94;6197350;22;96655;-80
2024/01/24 06:16:22;;;;;;;4.38;1.63;;;;;;;6.55;75.37;99816.00;6249310;22;97018;-81
2024/01/24 06:18:48;;;;;;;2.60;1.30;;;;;;;6.73;74.84;99817.25;6197003;22;101526;-81
2024/01/24 06:21:13;;;;;;;4.22;1.67;;;;;;;6.69;74.71;99786.91;6197320;22;101293;-80
2024/01/24 06:23:39;;;;;;;5.10;1.40;;;;;;;6.74;74.77;99792.88;6247409;22;97085;-82
2024/01/24 06:26:04;;;;;;;3.72;1.20;;;;;;;6.84;74.20;99803.94;6221260;22;96735;-82
2024/01/24 06:28:30;;;;;;;3.97;1.67;;;;;;;6.77;74.28;99785.81;6221816;22;101491;-82
2024/01/24 06:30:56;;;;;;;4.30;1.60;;;;;;;6.97;74.18;99806.16;6196812;22;100569;-81
2024/01/24 06:33:21;;;;;;;3.80;2.05;;;;;;;6.89;74.34;99789.00;6248073;22;96585;-83
2024/01/24 06:35:47;;;;;;;4.45;1.75;;;;;;;6.94;73.95;99794.94;6196666;22;96795;-84
2024/01/24 06:38:14;;;;;;;5.22;1.70;;;;;;;6.94;73.63;99795.81;6222299;22;101500;-85
2024/01/24 06:40:40;;;;;;;5.03;2.47;;;;;;;7.03;74.05;99803.38;6276437;22;97165;-84
2024/01/24 06:43:06;;;;;;;3.03;1.38;;;;;;;7.11;73.68;99789.28;6222855;22;96774;-83
2024/01/24 06:45:31;;;;;;;2.85;1.10;;;;;;;7.07;72.87;99764.13;6222452;22;97223;-75
2024/01/24 06:47:57;;;;;;;2.08;1.10;;;;;;;7.06;73.09;99752.00;6275031;22;97259;-75
2024/01/24 06:50:24;;;;;;;1.75;1.00;;;;;;;7.02;72.58;99744.25;6275555;22;97447;-74
2024/01/24 06:52:50;;;;;;;0.85;0.70;;;;;;;7.27;72.56;99759.19;6222539;22;97201;-76
2024/01/24 06:55:16;;;;;;;1.63;1.00;;;;;;;7.29;71.93;99759.16;6196760;22;96680;-75
2024/01/24 06:57:42;;;;;;;1.42;0.77;;;;;;;7.26;71.67;99749.66;6220712;22;100627;-76
2024/01/24 07:00:09;;;;;;;1.20;0.77;;;;;;;7.27;71.57;99738.31;6194932;22;100789;-75
2024/01/24 07:02:36;;;;;;;1.33;0.73;;;;;;;7.39;72.06;99752.78;6245962;22;96703;-76
2024/01/24 07:05:05;;;;;;;2.15;0.82;;;;;;;7.29;71.78;99733.06;6274229;22;96626;-74
2024/01/24 07:07:31;;;;;;;1.35;0.82;;;;;;;7.49;71.70;99743.75;6247132;22;97123;-75
2024/01/24 07:09:57;;;;;;;1.23;0.80;;;;;;;7.41;71.52;99730.91;6220983;22;97764;-74
2024/01/24 07:12:22;;;;;;;3.55;0.80;;;;;;;7.49;71.62;99738.53;6274439;22;96662;-75
2024/01/24 07:14:48;;;;;;;3.13;1.10;;;;;;;7.52;71.67;99733.22;6275058;22;96706;-75
2024/01/24 07:17:14;;;;;;;5.68;1.67;;;;;;;7.58;71.77;99738.25;6246320;22;101414;-74
2024/01/24 07:19:40;;;;;;;1.58;1.20;;;;;;;7.57;71.87;99718.25;6220474;22;100629;-76
2024/01/24 07:22:05;;;;;;;2.03;1.05;;;;;;;7.61;71.49;99722.47;6247142;22;96718;-83
2024/01/24 07:24:31;;;;;;;1.80;1.10;;;;;;;7.68;71.78;99729.22;6195982;22;96822;-83
2024/01/24 07:26:57;;;;;;;2.10;1.20;;;;;;;7.68;72.03;99726.63;6274225;22;97977;-83
2024/01/24 07:29:23;;;;;;;1.85;1.27;;;;;;;7.71;71.65;99733.50;6221709;22;101520;-83
2024/01/24 07:31:48;;;;;;;2.42;1.08;;;;;;;7.63;72.81;99712.84;6196125;22;96888;-84
2024/01/24 07:34:15;;;;;;;3.90;1.35;;;;;;;7.72;72.51;99715.16;6196882;22;96745;-84
2024/01/24 07:36:41;;;;;;;2.72;1.20;;;;;;;7.84;73.06;99721.75;6194799;22;101531;-83
2024/01/24 07:39:07;;;;;;;2.65;1.30;;;;;;;7.85;73.12;99720.88;6247462;22;97757;-83
2024/01/24 07:41:33;;;;;;;2.67;1.40;;;;;;;7.87;73.07;99705.97;6221641;22;97156;-84
2024/01/24 07:43:59;;;;;;;3.10;1.65;;;;;;;7.87;73.13;99707.72;6195971;22;97094;-83
2024/01/24 07:46:27;;;;;;;3.05;1.60;;;;;;;7.80;73.50;99694.03;6221040;22;97580;-84
2024/01/24 07:48:53;;;;;;;4.13;1.58;;;;;;;7.87;73.56;99705.97;6194887;22;101464;-83
2024/01/24 07:51:20;;;;;;;3.58;1.73;;;;;;;7.92;73.47;99691.00;6195855;22;96619;-83
2024/01/24 07:53:47;;;;;;;3.33;1.67;;;;;;;7.70;73.50;99659.47;6247883;22;96681;-83
2024/01/24 07:56:12;;;;;;;7.68;2.28;;;;;;;7.93;73.35;99686.63;6194763;22;101216;-83
2024/01/24 07:58:41;;;;;;;3.95;1.92;;;;;;;8.01;73.84;99692.44;6215806;22;101289;-84
2024/01/24 08:01:10;;;;;;;3.00;1.85;;;;;;;7.99;73.73;99702.09;6243469;22;97645;-74
2024/01/24 08:03:35;;;;;;;3.28;1.75;;;;;;;8.09;73.83;99689.59;6270277;22;96698;-81
2024/01/24 08:06:01;;;;;;;5.15;1.88;;;;;;;8.14;73.96;99685.91;6215898;22;98380;-74
2024/01/24 08:08:27;;;;;;;4.18;1.90;;;;;;;8.14;73.47;99695.50;6216730;22;101015;-75
2024/01/24 08:10:52;;;;;;;3.83;1.80;;;;;;;8.02;73.90;99673.25;6218259;22;96660;-75
2024/01/24 08:13:19;;;;;;;4.63;2.25;;;;;;;8.22;73.35;99688.25;6244301;22;97260;-74
2024/01/24 08:15:46;;;;;;;3.95;1.98;;;;;;;8.19;73.63;99677.03;6218287;22;101024;-76
2024/01/24 08:18:12;;;;;;;5.25;2.05;;;;;;;8.24;73.32;99682.97;6242939;22;98383;-74
2024/01/24 08:20:38;;;;;;;5.63;2.50;;;;;;;8.26;72.82;99675.91;6243880;22;96756;-74
2024/01/24 08:23:03;;;;;;;5.50;2.30;;;;;;;8.13;73.25;99652.81;6273927;22;97046;-76
2024/01/24 08:25:29;;;;;;;4.15;1.83;;;;;;;8.28;72.44;99658.41;6245024;22;97514;-75
2024/01/24 08:27:55;;;;;;;4.15;1.85;;;;;;;8.25;72.20;99661.16;6219074;22;101240;-76
2024/01/24 08:30:20;;;;;;;3.60;1.90;;;;;;;8.37;72.66;99666.78;6246664;22;97130;-77
2024/01/24 08:32:46;;;;;;;2.67;1.92;;;;;;;8.37;72.14;99655.47;6273581;22;97120;-77
2024/01/24 08:35:12;;;;;;;6.50;1.83;;;;;;;8.45;71.71;99656.09;6246254;22;97570;-74
2024/01/24 08:37:38;;;;;;;2.25;1.20;;;;;;;8.52;71.07;99651.50;6218824;22;100811;-74
2024/01/24 08:40:05;;;;;;;6.07;3.08;;;;;;;8.43;71.26;99629.13;6244712;22;96669;-74
2024/01/24 08:42:31;;;;;;;3.75;1.85;;;;;;;8.49;71.12;99622.81;6272831;22;96655;-77
2024/01/24 08:44:56;;;;;;;2.83;1.67;;;;;;;8.63;70.85;99648.50;6219530;22;99407;-74
2024/01/24 08:47:22;;;;;;;2.22;1.45;;;;;;;8.80;69.81;99653.94;6219890;22;97229;-74
2024/01/24 08:49:48;;;;;;;2.13;1.55;;;;;;;8.76;70.39;99644.53;6244404;22;97140;-74
2024/01/24 08:52:14;;;;;;;3.95;1.90;;;;;;;8.77;70.17;99636.59;6272876;22;97224;-74
2024/01/24 08:54:42;;;;;;;2.45;1.60;;;;;;;8.93;69.27;99665.69;6245011;22;96767;-74
2024/01/24 08:57:10;;;;;;;2.92;1.50;;;;;;;8.83;70.03;99649.44;6245192;22;97736;-74
2024/01/24 08:59:38;;;;;;;3.60;2.20;;;;;;;8.86;69.54;99637.16;6244971;22;97113;-77
2024/01/24 09:02:04;;;;;;;3.10;1.60;;;;;;;8.90;69.04;99644.88;6245522;22;96691;-75
2024/01/24 09:04:31;;;;;;;3.53;1.52;;;;;;;8.87;69.09;99637.09;6271250;22;97438;-74
2024/01/24 09:06:56;;;;;;;3.45;1.90;;;;;;;9.11;69.43;99651.03;6246184;22;97481;-74
2024/01/24 09:09:22;;;;;;;3.22;1.67;;;;;;;9.15;68.75;99655.22;6247073;22;96610;-76
2024/01/24 09:11:47;;;;;;;4.40;1.45;;;;;;;9.27;68.46;99652.13;6247089;22;97359;-74
2024/01/24 09:14:13;;;;;;;2.92;1.60;;;;;;;9.14;68.13;99619.50;6246612;22;97251;-76
2024/01/24 09:16:38;;;;;;;4.75;1.60;;;;;;;9.28;68.40;99645.16;6246283;22;97270;-76
2024/01/24 09:19:04;;;;;;;3.15;1.52;;;;;;;9.14;68.98;99623.88;6221879;22;96647;-76
2024/01/24 09:21:30;;;;;;;3.10;1.58;;;;;;;9.26;68.46;99629.47;6221464;22;96724;-80
2024/01/24 09:23:56;;;;;;;3.38;1.77;;;;;;;9.22;68.63;99619.16;6221932;22;97370;-77
2024/01/24 09:26:22;;;;;;;3.33;1.45;;;;;;;9.24;69.02;99617.34;6221083;22;97678;-77
2024/01/24 09:28:47;;;;;;;2.83;1.33;;;;;;;9.42;68.52;99642.81;6221558;22;97124;-74
2024/01/24 09:31:13;;;;;;;5.32;1.52;;;;;;;9.34;68.55;99629.19;6248269;22;97140;-78
2024/01/24 09:33:39;;;;;;;2.53;1.52;;;;;;;9.38;68.67;99624.66;6246521;22;98310;-74
2024/01/24 09:36:04;;;;;;;2.72;1.80;;;;;;;9.55;68.91;99624.84;6246754;22;97536;-75
2024/01/24 09:38:30;;;;;;;3.03;1.70;;;;;;;9.65;68.21;99628.78;6274613;22;96632;-75
2024/01/24 09:40:58;;;;;;;3.72;2.00;;;;;;;9.62;67.62;99604.47;6222003;22;96751;-77
2024/01/24 09:43:27;;;;;;;3.55;1.80;;;;;;;10.15;66.63;99607.44;6247120;22;97389;-74
2024/01/24 09:45:53;;;;;;;3.33;1.80;;;;;;;10.24;66.25;99594.81;6221148;22;97358;-76
2024/01/24 09:48:19;;;;;;;3.78;1.55;;;;;;;10.49;65.59;99611.22;6220943;22;97179;-76
2024/01/24 09:50:45;;;;;;;3.78;1.92;;;;;;;10.43;65.48;99583.47;6247449;22;97210;-75
2024/01/24 09:53:14;;;;;;;3.95;1.73;;;;;;;10.36;65.49;99604.84;6221014;22;101034;-75
2024/01/24 09:55:40;;;;;;;3.47;2.08;;;;;;;10.40;66.02;99627.38;6243707;22;97911;-75
2024/01/24 09:58:06;;;;;;;2.95;1.50;;;;;;;10.36;66.79;99618.81;6218461;22;97159;-78
2024/01/24 10:00:32;;;;;;;5.82;1.77;;;;;;;10.61;67.01;99625.56;6244401;22;96765;-75
2024/01/24 10:02:58;;;;;;;3.70;1.60;;;;;;;10.41;67.05;99573.97;6216416;22;98349;-74
2024/01/24 10:05:25;;;;;;;4.80;1.58;;;;;;;10.49;67.42;99594.63;6268951;22;97519;-75
2024/01/24 10:07:51;;;;;;;1.85;1.15;;;;;;;10.32;67.56;99592.75;6244519;22;96908;-78
2024/01/24 10:10:17;;;;;;;4.47;1.85;;;;;;;10.34;67.04;99572.56;6245522;22;96874;-74
2024/01/24 10:12:43;;;;;;;3.13;1.60;;;;;;;10.37;67.11;99578.50;6273565;22;97497;-74
2024/01/24 10:15:09;;;;;;;4.18;1.70;;;;;;;10.43;67.10;99567.75;6247216;22;97539;-74
2024/01/24 10:17:35;;;;;;;3.20;1.52;;;;;;;10.41;67.40;99573.97;6246645;22;96700;-74
2024/01/24 10:20:02;;;;;;;3.92;1.80;;;;;;;10.42;67.26;99575.69;6246951;22;96847;-77
2024/01/24 10:22:28;;;;;;;3.47;1.70;;;;;;;10.32;67.05;99554.25;6219000;22;97355;-75
2024/01/24 10:24:54;;;;;;;2.78;1.52;;;;;;;10.43;67.62;99573.00;6220009;22;98052;-74
2024/01/24 10:27:19;;;;;;;4.63;1.92;;;;;;;10.47;66.97;99570.22;6220600;22;97181;-75
2024/01/24 10:29:45;;;;;;;4.30;1.67;;;;;;;10.40;67.11;99567.03;6246520;22;97048;-78
2024/01/24 10:32:11;;;;;;;2.25;1.40;;;;;;;10.40;67.18;99567.03;6273799;22;98493;-74
2024/01/24 10:34:37;;;;;;;3.17;1.42;;;;;;;10.50;67.08;99568.34;6246424;22;98172;-75
2024/01/24 10:37:06;;;;;;;5.53;1.88;;;;;;;10.63;67.42;99564.22;6246780;22;97145;-74
2024/01/24 10:39:34;;;;;;;6.85;1.98;;;;;;;10.65;67.69;99558.91;6220611;22;96874;-76
2024/01/24 10:42:03;;;;;;;3.97;1.58;;;;;;;10.41;67.70;99540.75;6220573;22;101141;-74
2024/01/24 10:44:35;;;;;;;3.53;1.40;;;;;;;10.54;67.69;99550.66;6246601;22;97771;-82
2024/01/24 10:47:01;;;;;;;4.43;1.38;;;;;;;10.60;67.54;99574.00;6244094;22;97118;-74
2024/01/24 10:49:29;;;;;;;4.80;1.60;;;;;;;10.54;67.49;99550.66;6245192;22;97070;-78
2024/01/24 10:51:55;;;;;;;3.13;1.30;;;;;;;10.71;67.49;99579.63;6244123;22;98029;-74
2024/01/24 10:54:21;;;;;;;2.08;1.30;;;;;;;10.66;67.86;99555.34;6246991;22;97266;-75
2024/01/24 10:56:49;;;;;;;2.30;1.65;;;;;;;10.88;67.65;99570.97;6246181;22;96937;-81
2024/01/24 10:59:15;;;;;;;1.83;1.00;;;;;;;11.14;67.20;99563.59;6244674;22;97184;-74
2024/01/24 11:01:41;;;;;;;2.58;1.42;;;;;;;11.16;66.67;99562.59;6244890;22;98067;-79
2024/01/24 11:04:07;;;;;;;5.60;2.17;;;;;;;11.39;66.82;99548.34;6246869;22;97817;-75
2024/01/24 11:06:38;;;;;;;3.70;1.98;;;;;;;11.37;66.55;99529.16;6246605;22;96749;-75
2024/01/24 11:09:32;;;;;;;9.23;1.90;;;;;;;11.60;65.79;99542.94;6246545;22;96842;-74
2024/01/24 11:11:58;;;;;;;2.80;1.38;;;;;;;11.46;66.24;99533.97;6245484;22;97580;-80
2024/01/24 11:14:34;;;;;;;6.88;2.20;;;;;;;11.46;65.92;99530.47;6195442;22;101138;-74
2024/01/24 11:17:01;;;;;;;3.80;2.45;;;;;;;11.52;66.04;99545.97;6246009;22;96697;-74
2024/01/24 11:19:28;;;;;;;3.83;1.88;;;;;;;11.45;68.43;99571.69;6221336;22;97350;-75
2024/01/24 11:21:56;;;;;;;5.22;1.90;;;;;;;11.31;69.59;99580.25;6245794;22;98258;-75
2024/01/24 11:24:39;;;;;;;6.90;2.22;;;;;;;11.29;71.95;99576.00;6245737;22;98583;-80
2024/01/24 11:27:33;;;;;;;2.72;1.20;;;;;;;11.14;71.76;99572.34;6219604;22;96823;-75
2024/01/24 11:30:16;;;;;;;2.58;0.80;;;;;;;11.08;72.36;99575.25;6273408;22;97384;-75
2024/01/24 11:32:47;;;;;;;4.43;1.05;;;;;;;11.04;72.12;99586.81;6244955;22;97442;-75